LIEE

Cagliari Elmas Airport

Cagliari, Italy
TAF LIEE 231700Z 2318/2418 VRB05KT CAVOK BECMG 2409/2411 16010KT BECMG 2416/2418 VRB04KT
Issued Valid From Valid To
Apr-23 @ 17:00 UTC
(6 hours ago)
Apr-23 @ 18:00 UTC
(5 hours ago)
Apr-24 @ 18:00 UTC
(in 19 hours)
Apr-23 @ 18:00 to Apr-24 @ 09:00
TAF LIEE 231700Z 2318/2418 VRB05KT CAVOK
Wind Visibility Clouds Conditions
Variable at 5 knots 10,000+ meters
  • No significant clouds
Becoming Apr-24 @ 09:00 to Apr-24 @ 16:00
BECMG 2409/2411 16010KT
Wind Visibility Clouds Conditions
160° at 10 knots 10,000+ meters
  • No significant clouds
Becoming Apr-24 @ 16:00 to Apr-24 @ 18:00
BECMG 2416/2418 VRB04KT
Wind Visibility Clouds Conditions
Variable at 4 knots 10,000+ meters
  • No significant clouds
TAF LIEE 231700Z 2318/2418 VRB05KT CAVOK BECMG 2409/2411 16010KT BECMG 2416/2418 VRB04KT
Issued Apr-23 @ 17:00 UTC
(6 hours ago)
Valid From Apr-23 @ 18:00 UTC
(5 hours ago)
Valid To Apr-24 @ 18:00 UTC
(in 19 hours)
Apr-23 @ 18:00 - Apr-24 @ 09:00
Wind Visibility
Variable at 5 knots 10,000+ meters
Clouds
  • No significant clouds
Conditions
Becoming Apr-24 @ 09:00 - Apr-24 @ 16:00
Wind Visibility
160° at 10 knots 10,000+ meters
Clouds
  • No significant clouds
Conditions
Becoming Apr-24 @ 16:00 - Apr-24 @ 18:00
Wind Visibility
Variable at 4 knots 10,000+ meters
Clouds
  • No significant clouds
Conditions